Startpagina
METAR-TAF:

METAR-TAF

Vliegvelden :

Palma de Mallorca, Spanje

Aeropuerto de Palma de Mallorca

breedte: 39-33N, lengte: 002-44E, hoogte: 4 m

Actueel weer

Dit bericht is 20 uur en het 5 minuten geleden gemaakt, om 15:00 UTC
Wind 9 kt uit het noordwesten
Temperatuur 15°C
Vochtigheid 63%
Druk 1010 hPa
Zicht 10 km of meer
Weinig wolken op 2000 ft
Verspreide wolken op 3000 ft

METAR: LEPA 201500Z 32009KT 9999 FEW020 SCT030 15/08 Q1010 NOSIG

Tijdstip: 12:05 (11:05 UTC)

Verwachting

Dit bericht is 5 minuten geleden gemaakt, om 11:00 UTC
Verwachting geldig van 20 om 12 UTC tot 21 om 12 UTC
Wind 10 kt uit het noordnoordwesten
Zicht 10 km of meer
Verspreide wolken op 2500 ft
Wijzigt naar
van 20 om 18 UTC tot 20 om 20 UTC
Wind 5 kt uit het noordoosten
Tijdelijke
van 21 om 00 UTC tot 21 om 12 UTC
Zicht: 3000 m
Gebroken wolken op 2000 ft
regen

TAF: LEPA 201100Z 2012/2112 33010KT 9999 SCT025 TX17/2012Z TN04/2106Z BECMG 2018/2020 04005KT TEMPO 2100/2112 3000 RA BKN020

Waarnemingen en weersverwachtingen van meer dan 4000 vliegvelden (METAR en TAF).

De beschikbare stations zijn de gele en rode punten op de kaart.

Ga met uw muis naar het station om de naam te zien.

Klik dan om waarnemingen en weersverwachtingen te zien.

kaart wijzigen: klik op de groene knoppen met een zwart kruis om in te zoomen, op de groene knop met een streepje om uit te zoomen of op de groene pijlen voor aangrenzende kaarten.


METAR-TAF: